Home   Weather   Germany   Weyhe   Past weeks
Flag for Germany

Past Weather in Weyhe, Lower Saxony, Germany — Yesterday and Last 2 Weeks

Currently: 66 °F. Sunny. (Weather station: Bremen Airport, Germany). See more current weather

Past Weather in Weyhe — Graph

°F

Weyhe Temperature Yesterday

Maximum temperature yesterday: 72 °F (at 4:20 pm)
Minimum temperature yesterday: 57 °F (at 12:50 am)
Average temperature yesterday: 63 °F

High & Low Weather Summary for the Past Weeks

 TemperatureHumidityPressure
High82 °F (Jul 24, 3:50 pm)100% (Jul 18, 3:20 am)30.21 "Hg (Jul 18, 3:20 am)
Low50 °F (Jul 23, 2:50 am)42% (Jul 26, 4:20 pm)29.71 "Hg (Jul 24, 7:50 pm)
Average66 °F74%29.99 "Hg
* Reported Jul 15 9:20 am — Jul 30 9:20 am, Weyhe. Weather by CustomWeather, © 2021

Note: Actual official high and low records may vary slightly from our data, if they occured in-between our weather recording intervals... More about our weather records

Weyhe Weather History for the Previous 24 Hours

Scroll right to see more
 ConditionsComfort  
Time TempWeatherWind HumidityBarometerVisibility
9:20 am
Fri, Jul 30
64 °FSunny.12 mph64%29.77 "Hg10 mi
8:50 am63 °FSunny.15 mph68%29.77 "Hg10 mi
8:20 am61 °FSunny.12 mph72%29.77 "Hg10 mi
7:50 am59 °FSunny.10 mph72%29.77 "Hg10 mi
7:20 am57 °FSunny.9 mph77%29.77 "Hg10 mi
6:50 am55 °FSunny.8 mph82%29.77 "Hg10 mi
6:20 am54 °FSunny.8 mph88%29.77 "Hg10 mi
5:50 am55 °FSunny.9 mph77%29.77 "Hg10 mi
5:20 am54 °FClear.9 mph82%29.80 "Hg10 mi
4:50 am55 °FClear.9 mph77%29.80 "Hg10 mi
4:20 am54 °FClear.8 mph82%29.80 "Hg10 mi
3:50 am55 °FClear.9 mph77%29.80 "Hg10 mi
3:20 am55 °FClear.7 mph77%29.80 "Hg10 mi
2:50 am54 °FClear.6 mph77%29.80 "Hg10 mi
2:20 am54 °FClear.8 mph82%29.80 "Hg10 mi
1:50 am55 °FClear.7 mph77%29.80 "Hg10 mi
1:20 am55 °FClear.7 mph77%29.80 "Hg10 mi
12:50 am55 °FClear.6 mph77%29.80 "Hg10 mi
12:20 am57 °FClear.6 mph72%29.80 "Hg10 mi
11:50 pm
Thu, Jul 29
57 °FClear.6 mph72%29.80 "Hg10 mi
11:20 pm57 °FClear.9 mph72%29.80 "Hg10 mi
10:50 pm57 °FClear.8 mph77%29.80 "Hg10 mi
10:20 pm57 °FClear.7 mph72%29.83 "Hg10 mi
9:50 pm61 °FClear.9 mph68%29.83 "Hg10 mi
9:20 pm61 °FSunny.8 mph72%29.80 "Hg10 mi
8:50 pm64 °FPassing clouds.12 mph64%29.80 "HgN/A
8:20 pm66 °FScattered clouds.13 mph60%29.80 "HgN/A
7:50 pm66 °FScattered clouds.15 mph56%29.80 "HgN/A
7:20 pm68 °FPassing clouds.16 mph53%29.80 "HgN/A
6:50 pm68 °FPassing clouds.17 mph53%29.80 "HgN/A
6:20 pm68 °FPassing clouds.16 mph49%29.80 "HgN/A
5:50 pm68 °FPassing clouds.17 mph49%29.80 "HgN/A
5:20 pm68 °FScattered showers. Passing clouds.20 mph49%29.80 "HgN/A
4:50 pm70 °FPassing clouds.20 mph46%29.77 "HgN/A
4:20 pm72 °FScattered showers. Passing clouds.25 mph47%29.77 "HgN/A
3:50 pm68 °FScattered showers. Passing clouds.21 mph53%29.77 "HgN/A
3:20 pm70 °FPassing clouds.18 mph50%29.77 "HgN/A
2:50 pm64 °FScattered showers. Passing clouds.20 mph52%29.80 "HgN/A
1:50 pm66 °FPassing clouds.13 mph60%29.77 "HgN/A
1:20 pm63 °FPartly sunny.17 mph73%29.77 "HgN/A
12:50 pm68 °FScattered clouds.22 mph49%29.77 "HgN/A
12:20 pm68 °FScattered clouds.26 mph53%29.77 "HgN/A
11:50 am64 °FScattered clouds.22 mph56%29.77 "HgN/A
11:20 am68 °FScattered clouds.21 mph53%29.77 "HgN/A
10:50 am66 °FScattered clouds.20 mph60%29.77 "HgN/A
10:20 am66 °FScattered clouds.22 mph60%29.74 "HgN/A
Weather by CustomWeather, © 2021

See weather overview